Wednesday, August 15, 2018, 11:58 PM EDT
Back to Local

KELM, Elmira County Airport

Location: Horseheads, NY, United States Lat: 42.167
Local Time: 11:58 PM EDT ( 3:58 GMT) Lon: -76.9
Time Zone: US/Eastern Elev: 954 ft

Show me the last for .
Show Decoded

2018-08-15 22:53 METAR KELM 160253Z 00000KT 9SM CLR 20/18 A3003 RMK AO2 SLP164 T02000178 50018 =
2018-08-15 21:53 METAR KELM 160153Z 00000KT 10SM CLR 21/18 A3004 RMK AO2 SLP166 T02060183 =
2018-08-15 20:53 METAR KELM 160053Z 00000KT 10SM CLR 22/19 A3001 RMK AO2 SLP157 T02170189 =
2018-08-15 19:53 METAR KELM 152353Z 29004KT 9SM CLR 25/20 A2998 RMK AO2 SLP145 T02500200 10306
                 20244 53009 =
2018-08-15 18:53 METAR KELM 152253Z 30003KT 10SM FEW070 28/21 A2996 RMK AO2 SLP138 T02830211 =
2018-08-15 17:53 METAR KELM 152153Z 29004KT 10SM CLR 29/20 A2995 RMK AO2 SLPNO T02940200 =
2018-08-15 16:53 METAR KELM 152053Z 22006KT 10SM CLR 29/22 A2995 RMK AO2 SLPNO T02890222 58002 =
2018-08-15 15:53 METAR KELM 151953Z 24006KT 10SM FEW055 SCT070 27/19 A2996 RMK AO2 SLPNO
                 T02720194 =
2018-08-15 14:53 METAR KELM 151853Z 28008KT 10SM FEW060 BKN090 30/19 A2996 RMK AO2 SLPNO
                 T03000194 =
2018-08-15 13:53 METAR KELM 151753Z 28009KT 10SM CLR 30/18 A2996 RMK AO2 SLPNO T03000183 10306
                 20189 56003 =
2018-08-15 12:53 METAR KELM 151653Z 28008KT 250V310 10SM CLR 29/21 A2996 RMK AO2 SLPNO T02940206
                 =
2018-08-15 11:53 METAR KELM 151553Z VRB05KT 10SM FEW090 28/21 A2996 RMK AO2 SLP138 T02780206 =
2018-08-15 10:53 METAR KELM 151453Z 24008KT 10SM CLR 27/19 A2997 RMK AO2 SLP140 T02670194 51004 =
2018-08-15 09:53 METAR KELM 151353Z 23009KT 10SM CLR 22/19 A2997 RMK AO2 SLP141 T02220189 $ =
2018-08-15 08:53 METAR KELM 151253Z 24008KT 10SM CLR 19/18 A2996 RMK AO2 SLP140 T01890178 $ =
2018-08-15 07:53 METAR KELM 151153Z 24007KT 10SM CLR 19/18 A2995 RMK AO2 SLP138 7//// T01890178
                 51009 $ =
2018-08-15 06:53 METAR KELM 151053Z 23007KT 6SM BR CLR 17/16 A2995 RMK AO2 SLP136 T01720161 $ =
2018-08-15 05:58 METAR KELM 150958Z 23008KT 6SM BR CLR 17/16 A2993 RMK AO2 T01720161 $ =
2018-08-15 05:53 METAR KELM 150953Z A2993 RMK AO2 SLPNO $ =
2018-08-15 04:53 METAR KELM 150853Z AUTO A2992 RMK AO2 SLPNO 51003 PWINO $ =
2018-08-15 03:53 METAR KELM 150753Z AUTO A2992 RMK AO2 SLPNO PWINO $ =
2018-08-15 02:53 METAR KELM 150653Z AUTO A2992 RMK AO2 SLPNO PWINO $ =
2018-08-15 01:53 METAR KELM 150553Z AUTO A2991 RMK AO2 SLPNO 6//// 51006 PWINO $ =
2018-08-15 00:53 METAR KELM 150453Z AUTO A2991 RMK AO2 SLPNO PWINO $ =

Support USWX by starting your Amazon purchase here.